createdAt,value
2023-04-18T00:00:31.671Z,12.50
2023-04-18T00:03:04.633Z,12.50
2023-04-18T00:05:37.979Z,12.50
2023-04-18T00:08:10.868Z,12.50
2023-04-18T00:10:42.941Z,12.50
2023-04-18T00:13:18.399Z,12.40
2023-04-18T00:15:54.154Z,12.30
2023-04-18T00:18:27.162Z,12.30
2023-04-18T00:20:59.429Z,12.20
2023-04-18T00:23:31.567Z,12.20
2023-04-18T00:26:03.687Z,12.20
2023-04-18T00:28:35.724Z,12.10
2023-04-18T00:31:09.030Z,12.00
2023-04-18T00:33:41.183Z,12.00
2023-04-18T00:36:13.310Z,12.00
2023-04-18T00:38:46.988Z,11.90
2023-04-18T00:41:21.948Z,11.90
2023-04-18T00:43:55.037Z,11.80
2023-04-18T00:46:27.131Z,11.80
2023-04-18T00:48:59.494Z,11.80
2023-04-18T00:51:32.227Z,11.80
2023-04-18T00:54:06.388Z,11.80
2023-04-18T00:56:38.770Z,11.80
2023-04-18T00:59:11.269Z,11.90
2023-04-18T01:01:45.322Z,11.90
2023-04-18T01:04:18.010Z,11.90
2023-04-18T01:06:51.354Z,11.90
2023-04-18T01:09:25.642Z,11.90
2023-04-18T01:11:57.711Z,12.00
2023-04-18T01:14:29.894Z,12.10
2023-04-18T01:17:02.188Z,12.10
2023-04-18T01:19:34.282Z,12.00
2023-04-18T01:22:07.161Z,12.10
2023-04-18T01:24:39.262Z,12.20
2023-04-18T01:27:13.604Z,12.20
2023-04-18T01:29:45.698Z,12.30
2023-04-18T01:32:20.188Z,12.30
2023-04-18T01:34:52.321Z,12.30
2023-04-18T01:37:24.399Z,12.30
2023-04-18T01:39:58.276Z,12.30
2023-04-18T01:42:30.425Z,12.30
2023-04-18T01:45:02.703Z,12.30
2023-04-18T01:47:34.826Z,12.30
2023-04-18T01:50:08.131Z,12.30
2023-04-18T01:52:40.203Z,12.30
2023-04-18T01:55:14.328Z,12.30
2023-04-18T01:57:46.489Z,12.30
2023-04-18T02:00:19.163Z,12.20
2023-04-18T02:02:51.288Z,12.30
2023-04-18T02:05:27.297Z,12.30
2023-04-18T02:07:59.358Z,12.40
2023-04-18T02:10:31.490Z,12.40
2023-04-18T02:13:04.230Z,12.40
2023-04-18T02:15:36.808Z,12.40
2023-04-18T02:18:09.641Z,12.30
2023-04-18T02:20:41.720Z,12.30
2023-04-18T02:23:13.772Z,12.20
2023-04-18T02:25:45.978Z,12.30
2023-04-18T02:28:18.078Z,12.30
2023-04-18T02:30:50.200Z,12.30
2023-04-18T02:33:22.229Z,12.30
2023-04-18T02:35:54.302Z,12.20
2023-04-18T02:38:26.380Z,12.20
2023-04-18T02:40:58.460Z,12.20
2023-04-18T02:43:34.436Z,12.20
2023-04-18T02:46:07.918Z,12.20
2023-04-18T02:48:40.311Z,12.20
2023-04-18T02:51:13.622Z,12.20
2023-04-18T02:53:46.847Z,12.30
2023-04-18T02:56:19.104Z,12.30
2023-04-18T02:59:29.466Z,12.30
2023-04-18T03:02:23.552Z,12.40
2023-04-18T03:05:00.412Z,12.50
2023-04-18T03:07:32.783Z,12.70
2023-04-18T03:10:06.015Z,12.80
2023-04-18T03:12:40.710Z,12.80
2023-04-18T03:15:14.037Z,12.90
2023-04-18T03:17:47.384Z,12.90
2023-04-18T03:20:21.210Z,13.00
2023-04-18T03:22:53.290Z,13.00
2023-04-18T03:25:29.597Z,13.00
2023-04-18T03:28:02.943Z,13.00
2023-04-18T03:30:35.003Z,12.90
2023-04-18T03:33:08.610Z,12.80
2023-04-18T03:35:41.122Z,12.80
2023-04-18T03:38:13.505Z,12.70
2023-04-18T03:40:46.281Z,12.80
2023-04-18T03:43:26.661Z,12.80
2023-04-18T03:45:58.866Z,12.80
2023-04-18T03:48:35.838Z,12.80
2023-04-18T03:51:11.783Z,12.90
2023-04-18T03:53:44.366Z,12.90
2023-04-18T03:56:16.470Z,12.90
2023-04-18T03:58:55.121Z,12.80
2023-04-18T04:01:28.579Z,12.90
2023-04-18T04:04:01.861Z,12.90
2023-04-18T04:06:34.720Z,13.00
2023-04-18T04:09:06.920Z,13.10
2023-04-18T04:11:39.685Z,13.10
2023-04-18T04:14:14.492Z,13.20
2023-04-18T04:16:50.463Z,13.10
2023-04-18T04:19:22.813Z,13.10
2023-04-18T04:22:02.923Z,13.00
2023-04-18T04:24:38.379Z,12.90
2023-04-18T04:27:12.602Z,12.90
2023-04-18T04:29:45.572Z,12.90
2023-04-18T04:32:20.407Z,12.90
2023-04-18T04:34:53.678Z,12.90
2023-04-18T04:37:28.139Z,12.80
2023-04-18T04:40:20.174Z,12.70
2023-04-18T04:42:56.248Z,12.70
2023-04-18T04:45:34.994Z,12.70
2023-04-18T04:48:07.962Z,12.60
2023-04-18T04:50:41.995Z,12.60
2023-04-18T04:53:16.746Z,12.60
2023-04-18T04:55:49.219Z,12.60
2023-04-18T04:58:23.769Z,12.60
2023-04-18T05:01:14.072Z,12.60
2023-04-18T05:03:46.438Z,12.50
2023-04-18T05:06:22.477Z,12.60
2023-04-18T05:08:56.774Z,12.70
2023-04-18T05:11:28.831Z,12.70
2023-04-18T05:14:00.863Z,12.60
2023-04-18T05:16:33.506Z,12.80
2023-04-18T05:19:05.757Z,12.80
2023-04-18T05:21:37.848Z,12.90
2023-04-18T05:24:10.146Z,12.80
2023-04-18T05:26:42.861Z,12.80
2023-04-18T05:29:14.977Z,12.80
2023-04-18T05:31:47.027Z,12.90
2023-04-18T05:34:19.074Z,12.90
2023-04-18T05:36:51.728Z,13.00
2023-04-18T05:39:24.826Z,13.20
2023-04-18T05:41:56.904Z,13.30
2023-04-18T05:44:29.843Z,13.40
2023-04-18T05:47:02.002Z,13.50
2023-04-18T05:49:34.157Z,13.60
2023-04-18T05:52:06.266Z,13.70
2023-04-18T05:54:38.324Z,13.80
2023-04-18T05:57:10.549Z,13.90
2023-04-18T05:59:42.813Z,14.20
2023-04-18T06:02:14.988Z,14.30
2023-04-18T06:04:48.693Z,14.40
2023-04-18T06:07:21.502Z,14.60
2023-04-18T06:09:54.124Z,15.00
2023-04-18T06:12:26.202Z,15.40
2023-04-18T06:14:58.419Z,15.70
2023-04-18T06:17:30.847Z,16.30
2023-04-18T06:20:04.948Z,17.00
2023-04-18T06:22:36.993Z,17.80
2023-04-18T06:25:10.147Z,18.40
2023-04-18T06:27:42.326Z,18.60
2023-04-18T06:30:14.612Z,18.80
2023-04-18T06:32:46.820Z,19.20
2023-04-18T06:35:19.131Z,19.30
2023-04-18T06:37:51.327Z,19.10
2023-04-18T06:40:23.551Z,19.00
2023-04-18T06:42:55.939Z,18.90
2023-04-18T06:45:29.801Z,18.90
2023-04-18T06:48:04.070Z,18.90
2023-04-18T06:53:26.075Z,18.80
2023-04-18T06:55:58.222Z,18.80
2023-04-18T06:58:30.336Z,18.90
2023-04-18T07:01:02.310Z,19.10
2023-04-18T07:03:34.495Z,19.40
2023-04-18T07:06:08.938Z,19.70
2023-04-18T07:08:41.937Z,19.90
2023-04-18T07:11:13.983Z,20.00
2023-04-18T07:13:47.420Z,20.00
2023-04-18T07:16:19.796Z,20.40
2023-04-18T07:18:51.864Z,20.70
2023-04-18T07:21:24.043Z,21.10
2023-04-18T07:23:56.272Z,21.60
2023-04-18T07:26:28.435Z,21.90
2023-04-18T07:29:00.573Z,22.30
2023-04-18T07:31:32.780Z,22.70
2023-04-18T07:34:06.500Z,22.80
2023-04-18T07:36:38.495Z,22.40
2023-04-18T07:39:11.241Z,22.10
2023-04-18T07:41:43.275Z,21.50
2023-04-18T07:44:15.406Z,21.70
2023-04-18T07:46:47.974Z,21.80
2023-04-18T07:49:20.256Z,22.30
2023-04-18T07:51:52.348Z,22.50
2023-04-18T07:54:24.458Z,22.00
2023-04-18T07:56:56.735Z,21.60
2023-04-18T07:59:29.771Z,21.30
2023-04-18T08:02:02.028Z,21.30
2023-04-18T08:04:34.338Z,21.20
2023-04-18T08:07:06.529Z,21.10
2023-04-18T08:09:38.630Z,21.50
2023-04-18T08:12:10.817Z,21.70
2023-04-18T08:14:42.851Z,22.30
2023-04-18T08:17:15.655Z,22.30
2023-04-18T08:19:48.771Z,21.60
2023-04-18T08:22:20.819Z,21.30
2023-04-18T08:27:29.679Z,21.80
2023-04-18T08:30:04.095Z,21.70
2023-04-18T08:32:36.566Z,21.60
2023-04-18T08:35:08.908Z,21.90
2023-04-18T08:37:41.128Z,22.60
2023-04-18T08:40:13.353Z,23.50
2023-04-18T08:42:45.678Z,22.90
2023-04-18T08:45:19.692Z,22.20
2023-04-18T08:47:52.126Z,21.90
2023-04-18T08:50:24.298Z,21.80
2023-04-18T08:52:56.524Z,21.20
2023-04-18T08:55:28.747Z,20.80
2023-04-18T08:58:01.429Z,20.80
2023-04-18T09:00:34.305Z,20.90
2023-04-18T09:03:06.798Z,21.00
2023-04-18T09:05:38.961Z,21.30
2023-04-18T09:08:24.561Z,21.80
2023-04-18T09:11:18.403Z,22.40
2023-04-18T09:13:50.563Z,22.30
2023-04-18T09:16:23.542Z,21.90
2023-04-18T09:19:13.449Z,21.60
2023-04-18T09:21:48.794Z,21.00
2023-04-18T09:24:24.852Z,21.10
2023-04-18T09:26:58.724Z,21.30
2023-04-18T09:29:49.327Z,21.40
2023-04-18T09:32:29.621Z,22.20
2023-04-18T09:35:04.870Z,22.70
2023-04-18T09:37:37.182Z,22.90
2023-04-18T09:40:18.262Z,23.00
2023-04-18T09:42:54.293Z,22.80
2023-04-18T09:45:26.803Z,22.30
2023-04-18T09:47:58.980Z,21.90
2023-04-18T09:50:32.798Z,22.00
2023-04-18T09:53:05.465Z,22.60
2023-04-18T09:55:40.104Z,22.70
2023-04-18T09:58:13.774Z,22.40
2023-04-18T10:00:46.989Z,22.30
2023-04-18T10:03:19.918Z,21.60
2023-04-18T10:05:53.480Z,21.60
2023-04-18T10:08:27.408Z,21.50
2023-04-18T10:10:59.457Z,21.20
2023-04-18T10:13:34.299Z,21.00
2023-04-18T10:16:07.026Z,21.10
2023-04-18T10:18:39.223Z,21.80
2023-04-18T10:21:11.955Z,22.20
2023-04-18T10:23:45.907Z,22.20
2023-04-18T10:26:17.962Z,21.80
2023-04-18T10:28:54.931Z,21.70
2023-04-18T10:31:29.261Z,22.10
2023-04-18T10:36:36.435Z,21.80
2023-04-18T10:39:25.612Z,21.40
2023-04-18T10:41:57.719Z,21.40
2023-04-18T10:44:29.792Z,21.50
2023-04-18T10:47:08.105Z,21.80
2023-04-18T10:49:40.178Z,22.00
2023-04-18T10:52:13.408Z,21.90
2023-04-18T10:55:07.502Z,21.80
2023-04-18T10:57:45.144Z,22.10
2023-04-18T11:00:20.502Z,22.60
2023-04-18T11:02:56.317Z,23.10
2023-04-18T11:05:29.618Z,23.60
2023-04-18T11:08:01.703Z,23.70
2023-04-18T11:10:33.714Z,23.40
2023-04-18T11:13:06.623Z,22.00
2023-04-18T11:15:39.887Z,21.20
2023-04-18T11:18:12.047Z,21.00
2023-04-18T11:20:49.698Z,21.00
2023-04-18T11:23:25.020Z,20.80
2023-04-18T11:25:58.391Z,21.10
2023-04-18T11:28:30.602Z,21.30
2023-04-18T11:31:03.080Z,21.40
2023-04-18T11:33:35.218Z,21.30
2023-04-18T11:36:07.788Z,21.70
2023-04-18T11:38:41.689Z,21.80
2023-04-18T11:41:17.180Z,21.80
2023-04-18T11:43:49.368Z,22.20
2023-04-18T11:46:21.490Z,22.60
2023-04-18T11:48:53.623Z,22.90
2023-04-18T11:51:38.456Z,23.20
2023-04-18T11:54:43.250Z,23.30
2023-04-18T11:57:35.631Z,23.00
2023-04-18T12:00:09.903Z,22.00
2023-04-18T12:02:45.451Z,22.00
2023-04-18T12:05:29.259Z,22.30
2023-04-18T12:08:19.315Z,22.50
2023-04-18T12:10:53.453Z,22.70
2023-04-18T12:13:31.055Z,22.50
2023-04-18T12:16:03.269Z,21.90
2023-04-18T12:18:35.408Z,22.10
2023-04-18T12:21:07.760Z,22.40
2023-04-18T12:23:42.417Z,22.40
2023-04-18T12:26:18.322Z,22.20
2023-04-18T12:28:52.877Z,22.20
2023-04-18T12:31:24.943Z,21.70
2023-04-18T12:34:00.025Z,21.40
2023-04-18T12:36:32.177Z,21.40
2023-04-18T12:39:11.118Z,21.60
2023-04-18T12:41:44.266Z,22.00
2023-04-18T12:44:16.445Z,22.10
2023-04-18T12:46:48.568Z,21.80
2023-04-18T12:49:20.679Z,21.50
2023-04-18T12:51:52.729Z,21.50
2023-04-18T12:54:25.787Z,21.50
2023-04-18T12:56:57.938Z,21.70
2023-04-18T12:59:30.755Z,21.70
2023-04-18T13:02:02.855Z,21.60
2023-04-18T13:04:35.484Z,21.50
2023-04-18T13:07:07.640Z,21.40
2023-04-18T13:09:39.735Z,21.40
2023-04-18T13:12:13.684Z,21.80
2023-04-18T13:14:46.512Z,22.30
2023-04-18T13:17:18.681Z,22.60
2023-04-18T13:19:51.951Z,22.40
2023-04-18T13:22:23.898Z,22.20
2023-04-18T13:24:55.845Z,22.40
2023-04-18T13:27:27.807Z,22.60
2023-04-18T13:29:59.725Z,22.50
2023-04-18T13:32:31.651Z,21.80
2023-04-18T13:35:03.687Z,21.20
2023-04-18T13:37:35.764Z,21.10
2023-04-18T13:40:08.213Z,21.00
2023-04-18T13:42:40.077Z,21.00
2023-04-18T13:45:12.102Z,20.90
2023-04-18T13:47:44.134Z,20.80
2023-04-18T13:50:16.349Z,20.70
2023-04-18T13:52:49.381Z,20.80
2023-04-18T13:55:21.448Z,20.80
2023-04-18T13:57:53.284Z,21.00
2023-04-18T14:00:25.220Z,21.00
2023-04-18T14:02:57.636Z,21.10
2023-04-18T14:05:29.544Z,21.10
2023-04-18T14:08:04.143Z,20.90
2023-04-18T14:10:36.093Z,21.10
2023-04-18T14:13:08.043Z,21.20
2023-04-18T14:15:39.972Z,21.30
2023-04-18T14:18:11.964Z,21.10
2023-04-18T14:20:43.836Z,21.10
2023-04-18T14:23:16.144Z,21.10
2023-04-18T14:25:48.137Z,21.20
2023-04-18T14:28:23.722Z,21.10
2023-04-18T14:30:57.906Z,21.20
2023-04-18T14:33:29.971Z,21.40
2023-04-18T14:36:02.776Z,21.50
2023-04-18T14:38:34.646Z,21.60
2023-04-18T14:41:07.133Z,21.50
2023-04-18T14:43:39.189Z,21.20
2023-04-18T14:46:16.679Z,21.20
2023-04-18T14:48:48.769Z,21.20
2023-04-18T14:51:21.602Z,21.50
2023-04-18T14:53:53.939Z,21.70
2023-04-18T14:56:26.536Z,21.80
2023-04-18T14:58:59.145Z,21.90
2023-04-18T15:01:31.579Z,22.10
2023-04-18T15:04:04.376Z,22.30
2023-04-18T15:06:37.027Z,22.20
2023-04-18T15:09:08.837Z,22.00
2023-04-18T15:11:40.698Z,21.70
2023-04-18T15:14:14.179Z,21.50
2023-04-18T15:16:49.609Z,21.70
2023-04-18T15:19:21.650Z,21.80
2023-04-18T15:21:53.579Z,21.90
2023-04-18T15:24:25.969Z,21.90
2023-04-18T15:26:58.751Z,22.00
2023-04-18T15:29:31.080Z,22.00
2023-04-18T15:32:02.945Z,22.00
2023-04-18T15:34:34.866Z,21.60
2023-04-18T15:37:07.062Z,21.60
2023-04-18T15:39:39.182Z,21.50
2023-04-18T15:42:10.995Z,21.40
2023-04-18T15:44:43.430Z,21.50
2023-04-18T15:47:15.877Z,21.60
2023-04-18T15:49:47.738Z,21.70
2023-04-18T15:52:19.696Z,21.60
2023-04-18T15:54:52.258Z,21.50
2023-04-18T15:57:24.247Z,21.20
2023-04-18T15:59:56.792Z,21.10
2023-04-18T16:02:28.933Z,20.90
2023-04-18T16:05:01.157Z,20.80
2023-04-18T16:07:33.562Z,20.80
2023-04-18T16:10:08.840Z,20.80
2023-04-18T16:12:41.320Z,20.60
2023-04-18T16:15:13.421Z,20.60
2023-04-18T16:17:45.517Z,20.50
2023-04-18T16:20:17.476Z,20.30
2023-04-18T16:22:49.726Z,20.20
2023-04-18T16:25:21.812Z,20.20
2023-04-18T16:27:56.496Z,20.10
2023-04-18T16:30:28.726Z,20.10
2023-04-18T16:33:00.843Z,20.10
2023-04-18T16:35:33.215Z,20.00
2023-04-18T16:38:05.132Z,20.00
2023-04-18T16:40:37.978Z,19.90
2023-04-18T16:43:10.001Z,20.00
2023-04-18T16:45:41.871Z,20.00
2023-04-18T16:48:13.778Z,19.80
2023-04-18T16:50:45.878Z,19.80
2023-04-18T16:53:17.884Z,19.80
2023-04-18T16:56:01.003Z,19.70
2023-04-18T16:58:32.858Z,19.80
2023-04-18T17:01:04.715Z,19.70
2023-04-18T17:03:37.503Z,19.60
2023-04-18T17:06:09.488Z,19.60
2023-04-18T17:08:41.462Z,19.50
2023-04-18T17:11:13.276Z,19.40
2023-04-18T17:13:45.102Z,19.30
2023-04-18T17:16:17.931Z,19.30
2023-04-18T17:18:49.809Z,19.40
2023-04-18T17:21:21.914Z,19.30
2023-04-18T17:24:24.605Z,19.30
2023-04-18T17:26:57.971Z,19.40
2023-04-18T17:29:29.929Z,19.40
2023-04-18T17:32:01.984Z,19.40
2023-04-18T17:34:33.934Z,19.50
2023-04-18T17:37:06.217Z,19.50
2023-04-18T17:39:38.258Z,19.50
2023-04-18T17:42:10.709Z,19.50
2023-04-18T17:44:42.828Z,19.50
2023-04-18T17:47:14.730Z,19.30
2023-04-18T17:49:46.641Z,19.20
2023-04-18T17:52:18.612Z,19.20
2023-04-18T17:54:50.526Z,19.00
2023-04-18T17:57:23.101Z,18.80
2023-04-18T17:59:55.138Z,18.60
2023-04-18T18:02:28.503Z,18.50
2023-04-18T18:05:01.038Z,18.40
2023-04-18T18:07:37.304Z,18.30
2023-04-18T18:10:09.925Z,18.20
2023-04-18T18:12:42.460Z,18.20
2023-04-18T18:15:15.409Z,18.10
2023-04-18T18:17:54.961Z,17.90
2023-04-18T18:20:27.410Z,17.90
2023-04-18T18:22:59.896Z,17.80
2023-04-18T18:25:32.119Z,17.60
2023-04-18T18:28:04.290Z,17.50
2023-04-18T18:30:37.981Z,17.30
2023-04-18T18:33:09.970Z,17.40
2023-04-18T18:35:42.050Z,17.20
2023-04-18T18:38:14.038Z,17.10
2023-04-18T18:40:46.455Z,17.00
2023-04-18T18:43:18.366Z,17.00
2023-04-18T18:45:50.297Z,17.00
2023-04-18T18:48:27.926Z,16.90
2023-04-18T18:51:00.807Z,16.80
2023-04-18T18:53:32.733Z,16.70
2023-04-18T18:56:04.976Z,16.50
2023-04-18T18:58:37.318Z,16.30
2023-04-18T19:01:11.348Z,16.20
2023-04-18T19:03:56.932Z,16.10
2023-04-18T19:06:29.237Z,16.00
2023-04-18T19:09:09.869Z,15.90
2023-04-18T19:11:41.776Z,15.80
2023-04-18T19:14:13.870Z,15.80
2023-04-18T19:16:45.937Z,15.70
2023-04-18T19:19:18.018Z,15.70
2023-04-18T19:21:50.157Z,15.60
2023-04-18T19:24:22.130Z,15.50
2023-04-18T19:26:54.092Z,15.50
2023-04-18T19:29:26.211Z,15.50
2023-04-18T19:31:58.279Z,15.50
2023-04-18T19:34:30.180Z,15.40
2023-04-18T19:37:02.113Z,15.40
2023-04-18T19:39:34.145Z,15.40
2023-04-18T19:42:06.335Z,15.40
2023-04-18T19:44:38.769Z,15.30
2023-04-18T19:47:10.834Z,15.20
2023-04-18T19:49:44.345Z,15.10
2023-04-18T19:52:16.690Z,15.10
2023-04-18T19:54:48.722Z,15.10
2023-04-18T19:57:20.592Z,15.20
2023-04-18T19:59:52.533Z,15.10
2023-04-18T20:02:24.685Z,15.20
2023-04-18T20:04:56.859Z,15.10
2023-04-18T20:07:30.337Z,15.10
2023-04-18T20:10:04.281Z,15.00
2023-04-18T20:12:36.645Z,15.10
2023-04-18T20:15:09.021Z,15.00
2023-04-18T20:17:40.996Z,15.00
2023-04-18T20:20:13.124Z,14.80
2023-04-18T20:22:47.406Z,14.70
2023-04-18T20:25:19.444Z,14.70
2023-04-18T20:27:51.718Z,14.70
2023-04-18T20:30:26.591Z,14.70
2023-04-18T20:33:01.334Z,14.70
2023-04-18T20:35:35.604Z,14.70
2023-04-18T20:38:08.965Z,14.70
2023-04-18T20:40:44.979Z,14.70
2023-04-18T20:43:17.472Z,14.60
2023-04-18T20:45:52.224Z,14.50
2023-04-18T20:48:28.254Z,14.50
2023-04-18T20:51:00.336Z,14.60
2023-04-18T20:53:32.293Z,14.60
2023-04-18T20:56:06.134Z,14.60
2023-04-18T20:58:38.014Z,14.70
2023-04-18T21:01:09.992Z,14.60
2023-04-18T21:03:42.178Z,14.60
2023-04-18T21:06:14.358Z,14.60
2023-04-18T21:08:46.362Z,14.50
2023-04-18T21:11:20.884Z,14.50
2023-04-18T21:13:52.949Z,14.40
2023-04-18T21:16:27.706Z,14.40
2023-04-18T21:18:59.742Z,14.30
2023-04-18T21:21:31.841Z,14.30
2023-04-18T21:24:04.225Z,14.30
2023-04-18T21:26:36.257Z,14.30
2023-04-18T21:29:11.196Z,14.30
2023-04-18T21:31:43.179Z,14.30
2023-04-18T21:34:15.293Z,14.30
2023-04-18T21:36:47.518Z,14.30
2023-04-18T21:39:19.452Z,14.30
2023-04-18T21:41:51.380Z,14.30
2023-04-18T21:44:23.367Z,14.30
2023-04-18T21:46:59.868Z,14.20
2023-04-18T21:49:31.800Z,14.20
2023-04-18T21:52:03.701Z,14.20
2023-04-18T21:54:35.548Z,14.20
2023-04-18T21:57:07.362Z,14.20
2023-04-18T21:59:39.348Z,14.10
2023-04-18T22:02:14.427Z,14.20
2023-04-18T22:04:48.124Z,14.10
2023-04-18T22:07:20.037Z,14.10
2023-04-18T22:09:51.985Z,14.00
2023-04-18T22:12:24.505Z,13.90
2023-04-18T22:14:56.804Z,13.90
2023-04-18T22:17:28.682Z,14.00
2023-04-18T22:20:00.586Z,14.00
2023-04-18T22:22:32.440Z,14.00
2023-04-18T22:25:07.199Z,14.00
2023-04-18T22:27:39.640Z,13.90
2023-04-18T22:30:13.485Z,13.90
2023-04-18T22:32:45.345Z,13.70
2023-04-18T22:35:17.384Z,13.70
2023-04-18T22:37:49.303Z,13.70
2023-04-18T22:40:21.422Z,13.70
2023-04-18T22:42:53.549Z,13.60
2023-04-18T22:45:25.643Z,13.60
2023-04-18T22:47:57.755Z,13.70
2023-04-18T22:50:30.302Z,13.70
2023-04-18T22:53:02.183Z,13.60
2023-04-18T22:55:34.093Z,13.60
2023-04-18T22:58:06.186Z,13.50
2023-04-18T23:00:38.154Z,13.40
2023-04-18T23:03:10.350Z,13.50
2023-04-18T23:05:42.377Z,13.50
2023-04-18T23:08:14.330Z,13.50
2023-04-18T23:10:46.257Z,13.40
2023-04-18T23:13:19.515Z,13.40
2023-04-18T23:15:51.433Z,13.40
2023-04-18T23:18:23.300Z,13.40
2023-04-18T23:20:55.179Z,13.40
2023-04-18T23:23:27.248Z,13.50
2023-04-18T23:25:59.244Z,13.40
2023-04-18T23:28:31.125Z,13.50
2023-04-18T23:31:03.128Z,13.50
2023-04-18T23:33:35.496Z,13.50
2023-04-18T23:36:07.934Z,13.70
2023-04-18T23:38:40.822Z,13.70
2023-04-18T23:41:12.685Z,13.80
2023-04-18T23:43:44.641Z,13.80
2023-04-18T23:46:16.533Z,13.70
2023-04-18T23:48:48.504Z,13.70
2023-04-18T23:51:20.526Z,13.60
2023-04-18T23:53:52.380Z,13.70
2023-04-18T23:56:24.305Z,13.80
2023-04-18T23:58:56.775Z,13.90
